Menu Close Menu
Station Historical Data
Daily Summary for April 5, 2017 Units:  Both    English   Metric
« Previous Day
Next Day »
Daily Weekly Monthly Yearly Custom
  High: Low: Average:
Temperature: 63.4 °F /  17.4 °C 60.3 °F /  15.7 °C 61.2 °F /  16.2 °C
Dew Point: 60.8 °F /  16 °C 30.3 °F /  -0.9 °C 46.8 °F /  8.2 °C
Humidity: 94% 32% 62%
Wind Speed: 2.0mph /  3.2km/h - 0.1mph /  0.2km/h
Wind Gust: 6.0mph /  9.7km/h - -
Wind- - WNW
Pressure: 29.89 in /  1012.1 hPa 29.66 in /  1004.3 hPa -
Precipitation: 0.33 in /  8.38 mm    
Historical Graphs
 
 
Tabular Data for April 5, 2017
Time Temperature Dew Point Pressure Wind Wind Speed Wind Gust Humidity Rainfall Rate (Hourly) solar Conditions
00:00 63.3 °F /  17.4 °C 51.3 °F /  10.7 °C 29.89in /  1012.1hPa Calm     65% 0.00in /  0mm 0.0 W/m2 SCT
00:15 63.4 °F /  17.4 °C 52.7 °F /  11.5 °C 29.89in /  1012.1hPa Calm     68% 0.00in /  0mm 0.0 W/m2 SCT
00:30 62.9 °F /  17.2 °C 52.6 °F /  11.4 °C 29.89in /  1012.1hPa Calm     69% 0.00in /  0mm 0.0 W/m2 SCT
00:45 61.2 °F /  16.2 °C 51.7 °F /  10.9 °C 29.88in /  1011.7hPa Calm     71% 0.00in /  0mm 0.0 W/m2 SCT
01:00 61.2 °F /  16.2 °C 51.7 °F /  10.9 °C 29.88in /  1011.7hPa Calm     71% 0.00in /  0mm 0.0 W/m2 SCT
01:15 61.2 °F /  16.2 °C 51.7 °F /  10.9 °C 29.88in /  1011.7hPa Calm     71% 0.00in /  0mm 0.0 W/m2 SCT
01:30 61.2 °F /  16.2 °C 51.7 °F /  10.9 °C 29.87in /  1011.4hPa Calm     71% 0.00in /  0mm 0.0 W/m2 SCT
01:45 61.2 °F /  16.2 °C 51.7 °F /  10.9 °C 29.87in /  1011.4hPa Calm     71% 0.00in /  0mm 0.0 W/m2 SCT
02:00 61.2 °F /  16.2 °C 51.7 °F /  10.9 °C 29.86in /  1011.1hPa Calm     71% 0.00in /  0mm 0.0 W/m2 SCT
02:15 61.2 °F /  16.2 °C 51.7 °F /  10.9 °C 29.86in /  1011.1hPa Calm     71% 0.00in /  0mm 0.0 W/m2 SCT
02:30 61.2 °F /  16.2 °C 51.7 °F /  10.9 °C 29.86in /  1011.1hPa Calm     71% 0.00in /  0mm 0.0 W/m2 SCT
02:45 61.2 °F /  16.2 °C 51.7 °F /  10.9 °C 29.86in /  1011.1hPa Calm     71% 0.00in /  0mm 0.0 W/m2 SCT
03:00 61.2 °F /  16.2 °C 51.7 °F /  10.9 °C 29.86in /  1011.1hPa Calm     71% 0.00in /  0mm 0.0 W/m2 SCT
03:15 61.2 °F /  16.2 °C 51.7 °F /  10.9 °C 29.85in /  1010.7hPa Calm     71% 0.00in /  0mm 0.0 W/m2 SCT
03:30 61.2 °F /  16.2 °C 51.7 °F /  10.9 °C 29.85in /  1010.7hPa Calm     71% 0.00in /  0mm 0.0 W/m2 SCT
03:45 61.2 °F /  16.2 °C 51.7 °F /  10.9 °C 29.85in /  1010.7hPa Calm     71% 0.00in /  0mm 0.0 W/m2 SCT
04:00 61.2 °F /  16.2 °C 51.7 °F /  10.9 °C 29.83in /  1010hPa Calm     71% 0.00in /  0mm 0.0 W/m2 SCT
04:15 61.2 °F /  16.2 °C 51.7 °F /  10.9 °C 29.83in /  1010hPa Calm     71% 0.00in /  0mm 0.0 W/m2 SCT
04:30 61.2 °F /  16.2 °C 51.7 °F /  10.9 °C 29.83in /  1010hPa Calm     71% 0.00in /  0mm 0.0 W/m2 SCT
04:45 61.2 °F /  16.2 °C 51.7 °F /  10.9 °C 29.83in /  1010hPa Calm     71% 0.00in /  0mm 0.0 W/m2 SCT
05:00 61.2 °F /  16.2 °C 51.7 °F /  10.9 °C 29.84in /  1010.4hPa Calm     71% 0.00in /  0mm 0.0 W/m2 SCT
05:15 61.2 °F /  16.2 °C 51.7 °F /  10.9 °C 29.83in /  1010hPa Calm     71% 0.00in /  0mm 0.0 W/m2 SCT
05:30 61.2 °F /  16.2 °C 51.7 °F /  10.9 °C 29.84in /  1010.4hPa Calm     71% 0.00in /  0mm 0.0 W/m2 SCT
05:45 61.2 °F /  16.2 °C 51.7 °F /  10.9 °C 29.84in /  1010.4hPa Calm     71% 0.00in /  0mm 0.0 W/m2 SCT
06:00 61.2 °F /  16.2 °C 51.7 °F /  10.9 °C 29.84in /  1010.4hPa Calm     71% 0.00in /  0mm 0.0 W/m2 SCT
06:15 61.2 °F /  16.2 °C 51.7 °F /  10.9 °C 29.83in /  1010hPa Calm     71% 0.00in /  0mm 0.0 W/m2 SCT
06:30 61.2 °F /  16.2 °C 51.7 °F /  10.9 °C 29.84in /  1010.4hPa Calm     71% 0.00in /  0mm 0.0 W/m2 SCT
06:45 61.2 °F /  16.2 °C 51.7 °F /  10.9 °C 29.82in /  1009.7hPa Calm     71% 0.00in /  0mm 0.0 W/m2 SCT
07:00 61.2 °F /  16.2 °C 51.7 °F /  10.9 °C 29.83in /  1010hPa Calm     71% 0.00in /  0mm 0.0 W/m2 SCT
07:15 61.2 °F /  16.2 °C 51.7 °F /  10.9 °C 29.84in /  1010.4hPa Calm     71% 0.00in /  0mm 0.0 W/m2 SCT
07:30 61.2 °F /  16.2 °C 51.7 °F /  10.9 °C 29.84in /  1010.4hPa Calm     71% 0.00in /  0mm 0.0 W/m2 SCT
07:45 61.2 °F /  16.2 °C 51.7 °F /  10.9 °C 29.83in /  1010hPa Calm     71% 0.00in /  0mm 0.0 W/m2 SCT
08:00 61.2 °F /  16.2 °C 51.7 °F /  10.9 °C 29.84in /  1010.4hPa Calm     71% 0.00in /  0mm 0.0 W/m2 SCT
08:15 61.2 °F /  16.2 °C 51.7 °F /  10.9 °C 29.84in /  1010.4hPa Calm     71% 0.00in /  0mm 0.0 W/m2 SCT
08:30 61.2 °F /  16.2 °C 51.7 °F /  10.9 °C 29.89in /  1012.1hPa Calm     71% 0.00in /  0mm 0.0 W/m2 SCT
08:45 61.2 °F /  16.2 °C 51.7 °F /  10.9 °C 29.83in /  1010hPa Calm     71% 0.00in /  0mm 0.0 W/m2 SCT
09:00 61.2 °F /  16.2 °C 51.7 °F /  10.9 °C 29.83in /  1010hPa Calm     71% 0.00in /  0mm 0.0 W/m2 SCT
09:15 61.2 °F /  16.2 °C 51.7 °F /  10.9 °C 29.82in /  1009.7hPa Calm     71% 0.00in /  0mm 0.0 W/m2 SCT
09:30 61.2 °F /  16.2 °C 51.7 °F /  10.9 °C 29.81in /  1009.4hPa Calm     71% 0.00in /  0mm 0.0 W/m2 SCT
09:45 61.2 °F /  16.2 °C 51.7 °F /  10.9 °C 29.81in /  1009.4hPa Calm     71% 0.00in /  0mm 0.0 W/m2 SCT
10:00 61.2 °F /  16.2 °C 51.7 °F /  10.9 °C 29.81in /  1009.4hPa Calm     71% 0.00in /  0mm 0.0 W/m2 SCT
10:15 61.2 °F /  16.2 °C 51.7 °F /  10.9 °C 29.82in /  1009.7hPa Calm     71% 0.00in /  0mm 0.0 W/m2 SCT
10:30 61.2 °F /  16.2 °C 51.7 °F /  10.9 °C 29.82in /  1009.7hPa Calm     71% 0.00in /  0mm 0.0 W/m2 SCT
10:45 61.2 °F /  16.2 °C 51.7 °F /  10.9 °C 29.82in /  1009.7hPa Calm     71% 0.00in /  0mm 0.0 W/m2 SCT
11:00 61.2 °F /  16.2 °C 51.7 °F /  10.9 °C 29.88in /  1011.7hPa Calm     71% 0.00in /  0mm 0.0 W/m2 SCT
11:15 61.2 °F /  16.2 °C 51.7 °F /  10.9 °C 29.89in /  1012.1hPa Calm     71% 0.00in /  0mm 0.0 W/m2 SCT
11:30 61.2 °F /  16.2 °C 51.7 °F /  10.9 °C 29.86in /  1011.1hPa Calm     71% 0.00in /  0mm 0.0 W/m2 SCT
11:45 61.2 °F /  16.2 °C 51.7 °F /  10.9 °C 29.82in /  1009.7hPa Calm     71% 0.00in /  0mm 0.0 W/m2 SCT
12:00 61.2 °F /  16.2 °C 51.7 °F /  10.9 °C 29.81in /  1009.4hPa Calm     71% 0.00in /  0mm 0.0 W/m2 SCT
12:15 61.2 °F /  16.2 °C 51.7 °F /  10.9 °C 29.83in /  1010hPa Calm     71% 0.00in /  0mm 0.0 W/m2 SCT
12:30 61.2 °F /  16.2 °C 51.7 °F /  10.9 °C 29.80in /  1009hPa Calm     71% 0.00in /  0mm 0.0 W/m2 SCT
12:45 61.2 °F /  16.2 °C 51.7 °F /  10.9 °C 29.80in /  1009hPa Calm     71% 0.00in /  0mm 0.0 W/m2 SCT
13:00 61.2 °F /  16.2 °C 51.7 °F /  10.9 °C 29.78in /  1008.4hPa Calm     71% 0.00in /  0mm 0.0 W/m2 SCT
13:15 61.2 °F /  16.2 °C 51.7 °F /  10.9 °C 29.78in /  1008.4hPa Calm     71% 0.00in /  0mm 0.0 W/m2 SCT
13:30 61.2 °F /  16.2 °C 51.7 °F /  10.9 °C 29.82in /  1009.7hPa Calm     71% 0.00in /  0mm 0.0 W/m2 SCT
13:45 61.2 °F /  16.2 °C 51.7 °F /  10.9 °C 29.81in /  1009.4hPa Calm     71% 0.00in /  0mm 0.0 W/m2 SCT
14:00 61.2 °F /  16.2 °C 51.7 °F /  10.9 °C 29.81in /  1009.4hPa Calm     71% 0.00in /  0mm 0.0 W/m2 SCT
14:15 61.2 °F /  16.2 °C 51.7 °F /  10.9 °C 29.82in /  1009.7hPa Calm     71% 0.00in /  0mm 0.0 W/m2 SCT
14:30 61.2 °F /  16.2 °C 51.7 °F /  10.9 °C 29.85in /  1010.7hPa Calm     71% 0.00in /  0mm 0.0 W/m2 SCT
14:45 61.2 °F /  16.2 °C 51.7 °F /  10.9 °C 29.83in /  1010hPa Calm     71% 0.00in /  0mm 0.0 W/m2 SCT
15:00 60.8 °F /  16 °C 59.1 °F /  15.1 °C 29.80in /  1009hPa Calm   2.0mph /  3.2km/h 94% 0.02in /  0.51mm 0.0 W/m2 SCT
15:15 61.0 °F /  16.1 °C 59.3 °F /  15.2 °C 29.78in /  1008.4hPa Calm   3.0mph /  4.8km/h 94% 0.03in /  0.76mm 0.0 W/m2 SCT
15:30 60.9 °F /  16.1 °C 58.9 °F /  14.9 °C 29.78in /  1008.4hPa Calm   5.0mph /  8km/h 93% 0.02in /  0.51mm 0.0 W/m2 SCT
15:45 60.7 °F /  15.9 °C 58.7 °F /  14.8 °C 29.76in /  1007.7hPa Calm   5.0mph /  8km/h 93% 0.02in /  0.51mm 0.0 W/m2 SCT
16:00 60.9 °F /  16.1 °C 59.2 °F /  15.1 °C 29.75in /  1007.3hPa Calm   2.0mph /  3.2km/h 94% 0.01in /  0.25mm 0.0 W/m2 SCT
16:15 61.7 °F /  16.5 °C 59.9 °F /  15.5 °C 29.77in /  1008hPa Calm   3.0mph /  4.8km/h 94% 0.02in /  0.51mm 0.0 W/m2 RA
16:30 61.6 °F /  16.4 °C 59.6 °F /  15.3 °C 29.78in /  1008.4hPa Calm   3.0mph /  4.8km/h 93% 0.00in /  0mm 0.0 W/m2 SCT
16:45 61.6 °F /  16.4 °C 59.6 °F /  15.3 °C 29.74in /  1007hPa WNW 1.0mph /  1.6km/h 3.0mph /  4.8km/h 93% 0.01in /  0.25mm 0.0 W/m2 SCT
17:00 62.5 °F /  16.9 °C 60.8 °F /  16 °C 29.73in /  1006.7hPa West 1.0mph /  1.6km/h 3.0mph /  4.8km/h 94% 0.00in /  0mm 0.0 W/m2 SCT
17:15 62.7 °F /  17.1 °C 32.4 °F /  0.2 °C 29.73in /  1006.7hPa Calm   5.0mph /  8km/h 32% 0.00in /  0mm 0.0 W/m2 SCT
17:45 62.5 °F /  16.9 °C 32.2 °F /  0.1 °C 29.74in /  1007hPa Calm   2.0mph /  3.2km/h 32% 0.00in /  0mm 0.0 W/m2 SCT
18:00 62.1 °F /  16.7 °C 31.9 °F /  -0.1 °C 29.74in /  1007hPa Calm   3.0mph /  4.8km/h 32% 0.00in /  0mm 0.0 W/m2 SCT
18:15 61.8 °F /  16.6 °C 31.6 °F /  -0.2 °C 29.76in /  1007.7hPa Calm   3.0mph /  4.8km/h 32% 0.00in /  0mm 0.0 W/m2 SCT
18:30 61.5 °F /  16.4 °C 31.3 °F /  -0.4 °C 29.76in /  1007.7hPa WNW 1.0mph /  1.6km/h 3.0mph /  4.8km/h 32% 0.00in /  0mm 0.0 W/m2 SCT
18:45 61.2 °F /  16.2 °C 31.1 °F /  -0.5 °C 29.74in /  1007hPa WNW 1.0mph /  1.6km/h 6.0mph /  9.7km/h 32% 0.00in /  0mm 0.0 W/m2 SCT
19:00 61.0 °F /  16.1 °C 30.9 °F /  -0.6 °C 29.71in /  1006hPa WNW 1.0mph /  1.6km/h 3.0mph /  4.8km/h 32% 0.01in /  0.25mm 0.0 W/m2 SCT
19:15 61.0 °F /  16.1 °C 30.9 °F /  -0.6 °C 29.72in /  1006.3hPa Calm   3.0mph /  4.8km/h 32% 0.00in /  0mm 0.0 W/m2 SCT
19:30 61.0 °F /  16.1 °C 30.9 °F /  -0.6 °C 29.70in /  1005.6hPa West 1.0mph /  1.6km/h 3.0mph /  4.8km/h 32% 0.00in /  0mm 0.0 W/m2 SCT
19:45 60.8 °F /  16 °C 30.7 °F /  -0.7 °C 29.70in /  1005.6hPa Calm   2.0mph /  3.2km/h 32% 0.00in /  0mm 0.0 W/m2 SCT
20:00 60.7 °F /  15.9 °C 30.6 °F /  -0.8 °C 29.71in /  1006hPa Calm   2.0mph /  3.2km/h 32% 0.00in /  0mm 0.0 W/m2 SCT
20:15 60.5 °F /  15.8 °C 30.5 °F /  -0.8 °C 29.70in /  1005.6hPa Calm   1.0mph /  1.6km/h 32% 0.00in /  0mm 0.0 W/m2 SCT
20:30 60.5 °F /  15.8 °C 30.5 °F /  -0.8 °C 29.69in /  1005.3hPa Calm   2.0mph /  3.2km/h 32% 0.00in /  0mm 0.0 W/m2 SCT
20:45 60.6 °F /  15.9 °C 30.5 °F /  -0.8 °C 29.68in /  1005hPa Calm   2.0mph /  3.2km/h 32% 0.00in /  0mm 0.0 W/m2 SCT
21:00 60.5 °F /  15.8 °C 30.4 °F /  -0.9 °C 29.67in /  1004.6hPa West 1.0mph /  1.6km/h 3.0mph /  4.8km/h 32% 0.00in /  0mm 0.0 W/m2 SCT
21:15 60.3 °F /  15.7 °C 30.3 °F /  -0.9 °C 29.67in /  1004.6hPa WNW 1.0mph /  1.6km/h 3.0mph /  4.8km/h 32% 0.03in /  0.76mm 0.0 W/m2 SCT
21:30 60.3 °F /  15.7 °C 30.3 °F /  -0.9 °C 29.67in /  1004.6hPa WNW 1.0mph /  1.6km/h 5.0mph /  8km/h 32% 0.02in /  0.51mm 0.0 W/m2 SCT
21:45 60.5 °F /  15.8 °C 30.4 °F /  -0.9 °C 29.66in /  1004.3hPa WNW 1.0mph /  1.6km/h 2.0mph /  3.2km/h 32% 0.02in /  0.51mm 0.0 W/m2 SCT
22:00 60.7 °F /  15.9 °C 30.6 °F /  -0.8 °C 29.70in /  1005.6hPa Calm   5.0mph /  8km/h 32% 0.01in /  0.25mm 0.0 W/m2 SCT
22:15 60.6 °F /  15.9 °C 30.6 °F /  -0.8 °C 29.68in /  1005hPa Calm   2.0mph /  3.2km/h 32% 0.02in /  0.51mm 0.0 W/m2 SCT
22:30 60.6 °F /  15.9 °C 30.6 °F /  -0.8 °C 29.67in /  1004.6hPa WNW 2.0mph /  3.2km/h 5.0mph /  8km/h 32% 0.02in /  0.51mm 0.0 W/m2 RA
22:45 61.0 °F /  16.1 °C 30.9 °F /  -0.6 °C 29.67in /  1004.6hPa Calm   5.0mph /  8km/h 32% 0.01in /  0.25mm 0.0 W/m2 SCT
23:00 61.1 °F /  16.2 °C 31.0 °F /  -0.6 °C 29.67in /  1004.6hPa Calm   1.0mph /  1.6km/h 32% 0.01in /  0.25mm 0.0 W/m2 SCT
23:15 60.9 °F /  16.1 °C 30.8 °F /  -0.7 °C 29.67in /  1004.6hPa Calm   1.0mph /  1.6km/h 32% 0.01in /  0.25mm 0.0 W/m2 SCT
23:30 60.7 °F /  15.9 °C 30.7 °F /  -0.7 °C 29.70in /  1005.6hPa Calm     32% 0.02in /  0.51mm 0.0 W/m2 RA
23:45 60.8 °F /  16 °C 30.7 °F /  -0.7 °C 29.70in /  1005.6hPa Calm     32% 0.01in /  0.25mm 0.0 W/m2 RA
Piedmont Bend
Compliments of Weather Underground - 4 mb